sensor_id;sensor_type;location;lat;lon;timestamp;P1;durP1;ratioP1;P2;durP2;ratioP2
3095;SDS011;1558;42.700;23.360;2023-05-16T00:00:36;19.13;;;17.43;;
3095;SDS011;1558;42.700;23.360;2023-05-16T00:03:04;19.70;;;18.00;;
3095;SDS011;1558;42.700;23.360;2023-05-16T00:05:33;20.40;;;18.47;;
3095;SDS011;1558;42.700;23.360;2023-05-16T00:08:01;19.43;;;17.63;;
3095;SDS011;1558;42.700;23.360;2023-05-16T00:10:30;19.60;;;17.67;;
3095;SDS011;1558;42.700;23.360;2023-05-16T00:12:58;20.33;;;18.23;;
3095;SDS011;1558;42.700;23.360;2023-05-16T00:15:27;19.60;;;17.70;;
3095;SDS011;1558;42.700;23.360;2023-05-16T00:17:56;19.40;;;17.50;;
3095;SDS011;1558;42.700;23.360;2023-05-16T00:20:25;19.80;;;18.10;;
3095;SDS011;1558;42.700;23.360;2023-05-16T00:22:54;20.27;;;18.50;;
3095;SDS011;1558;42.700;23.360;2023-05-16T00:25:26;21.43;;;19.47;;
3095;SDS011;1558;42.700;23.360;2023-05-16T00:27:56;20.73;;;18.70;;
3095;SDS011;1558;42.700;23.360;2023-05-16T00:30:25;20.50;;;18.80;;
3095;SDS011;1558;42.700;23.360;2023-05-16T00:32:54;20.50;;;18.50;;
3095;SDS011;1558;42.700;23.360;2023-05-16T00:35:22;20.03;;;18.20;;
3095;SDS011;1558;42.700;23.360;2023-05-16T00:37:50;22.07;;;20.07;;
3095;SDS011;1558;42.700;23.360;2023-05-16T00:40:18;20.93;;;19.03;;
3095;SDS011;1558;42.700;23.360;2023-05-16T00:42:47;20.30;;;18.53;;
3095;SDS011;1558;42.700;23.360;2023-05-16T00:45:16;21.43;;;19.47;;
3095;SDS011;1558;42.700;23.360;2023-05-16T00:47:44;21.27;;;19.17;;
3095;SDS011;1558;42.700;23.360;2023-05-16T00:50:12;20.57;;;18.63;;
3095;SDS011;1558;42.700;23.360;2023-05-16T00:52:40;20.33;;;18.43;;
3095;SDS011;1558;42.700;23.360;2023-05-16T00:55:09;20.63;;;18.73;;
3095;SDS011;1558;42.700;23.360;2023-05-16T00:57:37;19.60;;;17.77;;
3095;SDS011;1558;42.700;23.360;2023-05-16T01:00:06;21.17;;;19.07;;
3095;SDS011;1558;42.700;23.360;2023-05-16T01:02:37;20.23;;;18.33;;
3095;SDS011;1558;42.700;23.360;2023-05-16T01:05:05;20.57;;;18.70;;
3095;SDS011;1558;42.700;23.360;2023-05-16T01:07:34;20.87;;;18.97;;
3095;SDS011;1558;42.700;23.360;2023-05-16T01:10:03;21.97;;;18.00;;
3095;SDS011;1558;42.700;23.360;2023-05-16T01:12:36;20.03;;;18.10;;
3095;SDS011;1558;42.700;23.360;2023-05-16T01:15:08;19.03;;;17.37;;
3095;SDS011;1558;42.700;23.360;2023-05-16T01:17:47;19.77;;;17.97;;
3095;SDS011;1558;42.700;23.360;2023-05-16T01:20:23;18.53;;;16.70;;
3095;SDS011;1558;42.700;23.360;2023-05-16T01:23:04;18.80;;;17.20;;
3095;SDS011;1558;42.700;23.360;2023-05-16T01:25:45;18.70;;;17.07;;
3095;SDS011;1558;42.700;23.360;2023-05-16T01:28:24;19.53;;;17.73;;
3095;SDS011;1558;42.700;23.360;2023-05-16T01:30:53;18.90;;;17.10;;
3095;SDS011;1558;42.700;23.360;2023-05-16T01:33:21;18.80;;;17.10;;
3095;SDS011;1558;42.700;23.360;2023-05-16T01:35:52;19.20;;;17.23;;
3095;SDS011;1558;42.700;23.360;2023-05-16T01:38:26;18.97;;;17.17;;
3095;SDS011;1558;42.700;23.360;2023-05-16T01:41:01;18.83;;;17.23;;
3095;SDS011;1558;42.700;23.360;2023-05-16T01:43:39;18.87;;;17.07;;
3095;SDS011;1558;42.700;23.360;2023-05-16T01:46:11;19.20;;;17.23;;
3095;SDS011;1558;42.700;23.360;2023-05-16T01:48:43;18.93;;;17.23;;
3095;SDS011;1558;42.700;23.360;2023-05-16T01:51:18;18.50;;;16.73;;
3095;SDS011;1558;42.700;23.360;2023-05-16T01:53:49;18.63;;;16.93;;
3095;SDS011;1558;42.700;23.360;2023-05-16T01:56:18;18.43;;;16.20;;
3095;SDS011;1558;42.700;23.360;2023-05-16T01:58:49;18.43;;;16.73;;
3095;SDS011;1558;42.700;23.360;2023-05-16T02:01:19;18.47;;;16.83;;
3095;SDS011;1558;42.700;23.360;2023-05-16T02:03:47;18.77;;;16.97;;
3095;SDS011;1558;42.700;23.360;2023-05-16T02:06:16;18.93;;;16.97;;
3095;SDS011;1558;42.700;23.360;2023-05-16T02:08:44;19.33;;;17.60;;
3095;SDS011;1558;42.700;23.360;2023-05-16T02:11:12;18.63;;;17.00;;
3095;SDS011;1558;42.700;23.360;2023-05-16T02:13:40;18.93;;;17.10;;
3095;SDS011;1558;42.700;23.360;2023-05-16T02:16:10;18.83;;;17.10;;
3095;SDS011;1558;42.700;23.360;2023-05-16T02:18:38;18.83;;;17.03;;
3095;SDS011;1558;42.700;23.360;2023-05-16T02:21:06;18.80;;;16.90;;
3095;SDS011;1558;42.700;23.360;2023-05-16T02:23:34;18.10;;;16.43;;
3095;SDS011;1558;42.700;23.360;2023-05-16T02:26:02;18.43;;;16.83;;
3095;SDS011;1558;42.700;23.360;2023-05-16T02:28:31;18.40;;;16.50;;
3095;SDS011;1558;42.700;23.360;2023-05-16T02:30:59;18.83;;;17.13;;
3095;SDS011;1558;42.700;23.360;2023-05-16T02:33:29;19.03;;;17.13;;
3095;SDS011;1558;42.700;23.360;2023-05-16T02:35:57;17.17;;;15.67;;
3095;SDS011;1558;42.700;23.360;2023-05-16T02:38:25;18.03;;;15.37;;
3095;SDS011;1558;42.700;23.360;2023-05-16T02:40:53;19.77;;;17.97;;
3095;SDS011;1558;42.700;23.360;2023-05-16T02:43:21;16.87;;;15.27;;
3095;SDS011;1558;42.700;23.360;2023-05-16T02:45:49;16.60;;;15.00;;
3095;SDS011;1558;42.700;23.360;2023-05-16T02:48:18;16.43;;;14.90;;
3095;SDS011;1558;42.700;23.360;2023-05-16T02:50:48;16.53;;;15.13;;
3095;SDS011;1558;42.700;23.360;2023-05-16T02:53:16;15.73;;;14.33;;
3095;SDS011;1558;42.700;23.360;2023-05-16T02:55:44;16.90;;;15.03;;
3095;SDS011;1558;42.700;23.360;2023-05-16T02:58:12;17.13;;;15.03;;
3095;SDS011;1558;42.700;23.360;2023-05-16T03:00:40;18.63;;;15.63;;
3095;SDS011;1558;42.700;23.360;2023-05-16T03:03:08;16.90;;;15.10;;
3095;SDS011;1558;42.700;23.360;2023-05-16T03:05:36;17.30;;;15.50;;
3095;SDS011;1558;42.700;23.360;2023-05-16T03:08:06;17.73;;;16.00;;
3095;SDS011;1558;42.700;23.360;2023-05-16T03:10:34;16.63;;;15.03;;
3095;SDS011;1558;42.700;23.360;2023-05-16T03:13:02;17.53;;;15.80;;
3095;SDS011;1558;42.700;23.360;2023-05-16T03:15:30;19.47;;;15.53;;
3095;SDS011;1558;42.700;23.360;2023-05-16T03:18:16;17.40;;;15.80;;
3095;SDS011;1558;42.700;23.360;2023-05-16T03:20:44;17.10;;;15.40;;
3095;SDS011;1558;42.700;23.360;2023-05-16T03:23:14;17.27;;;15.67;;
3095;SDS011;1558;42.700;23.360;2023-05-16T03:25:41;17.83;;;16.23;;
3095;SDS011;1558;42.700;23.360;2023-05-16T03:28:11;16.90;;;14.47;;
3095;SDS011;1558;42.700;23.360;2023-05-16T03:30:40;17.07;;;15.27;;
3095;SDS011;1558;42.700;23.360;2023-05-16T03:33:08;17.33;;;15.50;;
3095;SDS011;1558;42.700;23.360;2023-05-16T03:35:37;17.43;;;15.50;;
3095;SDS011;1558;42.700;23.360;2023-05-16T03:38:06;16.73;;;15.13;;
3095;SDS011;1558;42.700;23.360;2023-05-16T03:40:36;17.30;;;15.50;;
3095;SDS011;1558;42.700;23.360;2023-05-16T03:43:04;17.43;;;15.80;;
3095;SDS011;1558;42.700;23.360;2023-05-16T03:45:32;19.10;;;15.83;;
3095;SDS011;1558;42.700;23.360;2023-05-16T03:48:00;17.77;;;16.03;;
3095;SDS011;1558;42.700;23.360;2023-05-16T03:50:28;18.60;;;17.00;;
3095;SDS011;1558;42.700;23.360;2023-05-16T03:52:56;18.17;;;16.27;;
3095;SDS011;1558;42.700;23.360;2023-05-16T03:55:24;19.57;;;17.67;;
3095;SDS011;1558;42.700;23.360;2023-05-16T03:57:54;19.03;;;17.20;;
3095;SDS011;1558;42.700;23.360;2023-05-16T04:00:22;20.07;;;18.07;;
3095;SDS011;1558;42.700;23.360;2023-05-16T04:02:50;18.00;;;16.33;;
3095;SDS011;1558;42.700;23.360;2023-05-16T04:05:18;18.67;;;16.57;;
3095;SDS011;1558;42.700;23.360;2023-05-16T04:07:46;16.87;;;15.17;;
3095;SDS011;1558;42.700;23.360;2023-05-16T04:10:14;16.83;;;15.30;;
3095;SDS011;1558;42.700;23.360;2023-05-16T04:12:43;17.27;;;14.20;;
3095;SDS011;1558;42.700;23.360;2023-05-16T04:15:12;18.13;;;15.57;;
3095;SDS011;1558;42.700;23.360;2023-05-16T04:17:41;21.27;;;18.53;;
3095;SDS011;1558;42.700;23.360;2023-05-16T04:20:09;20.43;;;17.33;;
3095;SDS011;1558;42.700;23.360;2023-05-16T04:22:38;19.43;;;17.43;;
3095;SDS011;1558;42.700;23.360;2023-05-16T04:25:06;18.27;;;16.50;;
3095;SDS011;1558;42.700;23.360;2023-05-16T04:27:34;18.50;;;16.70;;
3095;SDS011;1558;42.700;23.360;2023-05-16T04:30:03;19.20;;;17.20;;
3095;SDS011;1558;42.700;23.360;2023-05-16T04:32:33;20.23;;;18.03;;
3095;SDS011;1558;42.700;23.360;2023-05-16T04:35:02;19.83;;;17.53;;
3095;SDS011;1558;42.700;23.360;2023-05-16T04:37:30;18.90;;;16.90;;
3095;SDS011;1558;42.700;23.360;2023-05-16T04:39:58;21.00;;;17.87;;
3095;SDS011;1558;42.700;23.360;2023-05-16T04:42:26;18.47;;;16.67;;
3095;SDS011;1558;42.700;23.360;2023-05-16T04:44:54;19.67;;;17.57;;
3095;SDS011;1558;42.700;23.360;2023-05-16T04:47:24;20.30;;;18.23;;
3095;SDS011;1558;42.700;23.360;2023-05-16T04:49:54;19.43;;;17.50;;
3095;SDS011;1558;42.700;23.360;2023-05-16T04:52:22;22.60;;;19.27;;
3095;SDS011;1558;42.700;23.360;2023-05-16T04:54:50;19.57;;;17.60;;
3095;SDS011;1558;42.700;23.360;2023-05-16T04:57:18;18.77;;;17.07;;
3095;SDS011;1558;42.700;23.360;2023-05-16T04:59:46;23.93;;;19.33;;
3095;SDS011;1558;42.700;23.360;2023-05-16T05:02:14;24.83;;;18.83;;
3095;SDS011;1558;42.700;23.360;2023-05-16T05:04:43;21.10;;;17.97;;
3095;SDS011;1558;42.700;23.360;2023-05-16T05:07:12;20.97;;;18.83;;
3095;SDS011;1558;42.700;23.360;2023-05-16T05:09:41;23.97;;;21.40;;
3095;SDS011;1558;42.700;23.360;2023-05-16T05:12:09;24.47;;;21.97;;
3095;SDS011;1558;42.700;23.360;2023-05-16T05:14:37;25.40;;;22.70;;
3095;SDS011;1558;42.700;23.360;2023-05-16T05:17:05;26.30;;;23.30;;
3095;SDS011;1558;42.700;23.360;2023-05-16T05:19:34;31.90;;;23.53;;
3095;SDS011;1558;42.700;23.360;2023-05-16T05:22:02;24.20;;;21.70;;
3095;SDS011;1558;42.700;23.360;2023-05-16T05:24:31;21.57;;;19.50;;
3095;SDS011;1558;42.700;23.360;2023-05-16T05:27:00;19.50;;;17.43;;
3095;SDS011;1558;42.700;23.360;2023-05-16T05:29:28;20.77;;;16.00;;
3095;SDS011;1558;42.700;23.360;2023-05-16T05:31:56;19.03;;;16.90;;
3095;SDS011;1558;42.700;23.360;2023-05-16T05:34:24;19.33;;;17.30;;
3095;SDS011;1558;42.700;23.360;2023-05-16T05:36:52;19.57;;;17.20;;
3095;SDS011;1558;42.700;23.360;2023-05-16T05:39:20;19.67;;;17.57;;
3095;SDS011;1558;42.700;23.360;2023-05-16T05:41:51;18.57;;;16.67;;
3095;SDS011;1558;42.700;23.360;2023-05-16T05:44:19;19.07;;;16.10;;
3095;SDS011;1558;42.700;23.360;2023-05-16T05:46:47;18.37;;;16.10;;
3095;SDS011;1558;42.700;23.360;2023-05-16T05:49:15;22.33;;;16.87;;
3095;SDS011;1558;42.700;23.360;2023-05-16T05:51:43;22.30;;;17.90;;
3095;SDS011;1558;42.700;23.360;2023-05-16T05:54:11;21.30;;;18.97;;
3095;SDS011;1558;42.700;23.360;2023-05-16T05:56:39;19.13;;;17.23;;
3095;SDS011;1558;42.700;23.360;2023-05-16T05:59:08;20.73;;;16.97;;
3095;SDS011;1558;42.700;23.360;2023-05-16T06:01:36;17.50;;;15.83;;
3095;SDS011;1558;42.700;23.360;2023-05-16T06:04:05;18.63;;;16.23;;
3095;SDS011;1558;42.700;23.360;2023-05-16T06:06:33;17.73;;;15.80;;
3095;SDS011;1558;42.700;23.360;2023-05-16T06:09:01;16.70;;;14.87;;
3095;SDS011;1558;42.700;23.360;2023-05-16T06:11:30;15.23;;;13.63;;
3095;SDS011;1558;42.700;23.360;2023-05-16T06:13:58;14.67;;;13.13;;
3095;SDS011;1558;42.700;23.360;2023-05-16T06:16:27;15.10;;;13.57;;
3095;SDS011;1558;42.700;23.360;2023-05-16T06:18:55;17.67;;;13.43;;
3095;SDS011;1558;42.700;23.360;2023-05-16T06:21:23;17.30;;;15.50;;
3095;SDS011;1558;42.700;23.360;2023-05-16T06:23:51;16.63;;;14.33;;
3095;SDS011;1558;42.700;23.360;2023-05-16T06:26:19;16.70;;;15.03;;
3095;SDS011;1558;42.700;23.360;2023-05-16T06:28:48;17.73;;;15.10;;
3095;SDS011;1558;42.700;23.360;2023-05-16T06:31:16;15.73;;;14.13;;
3095;SDS011;1558;42.700;23.360;2023-05-16T06:33:45;20.27;;;13.97;;
3095;SDS011;1558;42.700;23.360;2023-05-16T06:36:13;15.20;;;13.63;;
3095;SDS011;1558;42.700;23.360;2023-05-16T06:38:41;15.53;;;13.30;;
3095;SDS011;1558;42.700;23.360;2023-05-16T06:41:09;17.47;;;14.13;;
3095;SDS011;1558;42.700;23.360;2023-05-16T06:43:37;16.10;;;14.40;;
3095;SDS011;1558;42.700;23.360;2023-05-16T06:46:06;23.53;;;15.83;;
3095;SDS011;1558;42.700;23.360;2023-05-16T06:48:34;16.77;;;14.97;;
3095;SDS011;1558;42.700;23.360;2023-05-16T06:51:04;19.17;;;15.20;;
3095;SDS011;1558;42.700;23.360;2023-05-16T06:53:32;21.67;;;14.60;;
3095;SDS011;1558;42.700;23.360;2023-05-16T06:56:00;15.80;;;14.23;;
3095;SDS011;1558;42.700;23.360;2023-05-16T06:58:28;15.57;;;13.97;;
3095;SDS011;1558;42.700;23.360;2023-05-16T07:00:56;15.93;;;14.33;;
3095;SDS011;1558;42.700;23.360;2023-05-16T07:03:24;21.00;;;15.33;;
3095;SDS011;1558;42.700;23.360;2023-05-16T07:05:53;18.30;;;16.43;;
3095;SDS011;1558;42.700;23.360;2023-05-16T07:08:22;18.50;;;16.27;;
3095;SDS011;1558;42.700;23.360;2023-05-16T07:10:51;19.47;;;16.73;;
3095;SDS011;1558;42.700;23.360;2023-05-16T07:13:19;22.73;;;20.37;;
3095;SDS011;1558;42.700;23.360;2023-05-16T07:15:47;28.33;;;20.47;;
3095;SDS011;1558;42.700;23.360;2023-05-16T07:18:15;20.80;;;18.60;;
3095;SDS011;1558;42.700;23.360;2023-05-16T07:20:43;25.57;;;17.80;;
3095;SDS011;1558;42.700;23.360;2023-05-16T07:23:12;17.77;;;14.40;;
3095;SDS011;1558;42.700;23.360;2023-05-16T07:25:41;14.67;;;13.27;;
3095;SDS011;1558;42.700;23.360;2023-05-16T07:28:09;18.67;;;14.80;;
3095;SDS011;1558;42.700;23.360;2023-05-16T07:30:37;22.73;;;18.50;;
3095;SDS011;1558;42.700;23.360;2023-05-16T07:33:05;20.67;;;17.20;;
3095;SDS011;1558;42.700;23.360;2023-05-16T07:35:33;16.77;;;14.73;;
3095;SDS011;1558;42.700;23.360;2023-05-16T07:38:01;14.47;;;12.77;;
3095;SDS011;1558;42.700;23.360;2023-05-16T07:40:30;18.97;;;12.73;;
3095;SDS011;1558;42.700;23.360;2023-05-16T07:42:59;16.13;;;11.67;;
3095;SDS011;1558;42.700;23.360;2023-05-16T07:45:28;16.00;;;13.17;;
3095;SDS011;1558;42.700;23.360;2023-05-16T07:47:56;18.87;;;12.20;;
3095;SDS011;1558;42.700;23.360;2023-05-16T07:50:25;20.47;;;13.00;;
3095;SDS011;1558;42.700;23.360;2023-05-16T07:52:53;19.80;;;12.07;;
3095;SDS011;1558;42.700;23.360;2023-05-16T07:55:21;13.90;;;12.60;;
3095;SDS011;1558;42.700;23.360;2023-05-16T07:57:50;13.77;;;11.60;;
3095;SDS011;1558;42.700;23.360;2023-05-16T08:00:20;15.77;;;12.13;;
3095;SDS011;1558;42.700;23.360;2023-05-16T08:02:48;16.10;;;12.03;;
3095;SDS011;1558;42.700;23.360;2023-05-16T08:05:17;17.07;;;11.37;;
3095;SDS011;1558;42.700;23.360;2023-05-16T08:07:45;13.63;;;11.27;;
3095;SDS011;1558;42.700;23.360;2023-05-16T08:10:13;14.93;;;11.40;;
3095;SDS011;1558;42.700;23.360;2023-05-16T08:12:42;15.63;;;11.83;;
3095;SDS011;1558;42.700;23.360;2023-05-16T08:15:10;17.60;;;12.47;;
3095;SDS011;1558;42.700;23.360;2023-05-16T08:17:39;18.50;;;13.00;;
3095;SDS011;1558;42.700;23.360;2023-05-16T08:20:08;16.07;;;13.33;;
3095;SDS011;1558;42.700;23.360;2023-05-16T08:22:37;14.83;;;13.30;;
3095;SDS011;1558;42.700;23.360;2023-05-16T08:25:06;19.30;;;14.13;;
3095;SDS011;1558;42.700;23.360;2023-05-16T08:27:35;14.73;;;13.30;;
3095;SDS011;1558;42.700;23.360;2023-05-16T08:30:03;17.30;;;12.67;;
3095;SDS011;1558;42.700;23.360;2023-05-16T08:32:33;14.20;;;12.70;;
3095;SDS011;1558;42.700;23.360;2023-05-16T08:35:05;19.50;;;13.40;;
3095;SDS011;1558;42.700;23.360;2023-05-16T08:37:34;18.00;;;12.23;;
3095;SDS011;1558;42.700;23.360;2023-05-16T08:40:03;14.37;;;12.70;;
3095;SDS011;1558;42.700;23.360;2023-05-16T08:42:34;13.90;;;11.57;;
3095;SDS011;1558;42.700;23.360;2023-05-16T08:45:03;12.07;;;10.80;;
3095;SDS011;1558;42.700;23.360;2023-05-16T08:47:32;12.33;;;11.03;;
3095;SDS011;1558;42.700;23.360;2023-05-16T08:50:02;14.47;;;11.50;;
3095;SDS011;1558;42.700;23.360;2023-05-16T08:52:32;16.73;;;11.70;;
3095;SDS011;1558;42.700;23.360;2023-05-16T08:55:05;18.27;;;12.50;;
3095;SDS011;1558;42.700;23.360;2023-05-16T08:57:37;19.40;;;12.70;;
3095;SDS011;1558;42.700;23.360;2023-05-16T09:00:06;16.38;;;12.30;;
3095;SDS011;1558;42.700;23.360;2023-05-16T09:02:38;13.43;;;11.68;;
3095;SDS011;1558;42.700;23.360;2023-05-16T09:05:08;15.57;;;11.38;;
3095;SDS011;1558;42.700;23.360;2023-05-16T09:07:40;12.35;;;10.30;;
3095;SDS011;1558;42.700;23.360;2023-05-16T09:10:08;12.95;;;9.98;;
3095;SDS011;1558;42.700;23.360;2023-05-16T09:12:38;13.50;;;10.75;;
3095;SDS011;1558;42.700;23.360;2023-05-16T09:15:08;12.55;;;10.35;;
3095;SDS011;1558;42.700;23.360;2023-05-16T09:17:37;12.95;;;10.48;;
3095;SDS011;1558;42.700;23.360;2023-05-16T09:20:10;11.10;;;10.00;;
3095;SDS011;1558;42.700;23.360;2023-05-16T09:22:48;11.63;;;10.32;;
3095;SDS011;1558;42.700;23.360;2023-05-16T09:25:18;11.75;;;10.55;;
3095;SDS011;1558;42.700;23.360;2023-05-16T09:27:56;10.65;;;9.55;;
3095;SDS011;1558;42.700;23.360;2023-05-16T09:30:27;12.82;;;10.45;;
3095;SDS011;1558;42.700;23.360;2023-05-16T09:32:57;11.68;;;10.38;;
3095;SDS011;1558;42.700;23.360;2023-05-16T09:35:25;12.68;;;10.52;;
3095;SDS011;1558;42.700;23.360;2023-05-16T09:37:58;12.40;;;10.85;;
3095;SDS011;1558;42.700;23.360;2023-05-16T09:40:26;12.75;;;11.25;;
3095;SDS011;1558;42.700;23.360;2023-05-16T09:43:00;13.00;;;10.93;;
3095;SDS011;1558;42.700;23.360;2023-05-16T09:45:32;12.38;;;11.18;;
3095;SDS011;1558;42.700;23.360;2023-05-16T09:48:03;11.55;;;10.55;;
3095;SDS011;1558;42.700;23.360;2023-05-16T09:50:32;15.50;;;11.05;;
3095;SDS011;1558;42.700;23.360;2023-05-16T09:53:02;12.23;;;11.02;;
3095;SDS011;1558;42.700;23.360;2023-05-16T09:55:31;14.73;;;10.55;;
3095;SDS011;1558;42.700;23.360;2023-05-16T09:57:59;12.57;;;10.48;;
3095;SDS011;1558;42.700;23.360;2023-05-16T10:00:28;13.40;;;10.80;;
3095;SDS011;1558;42.700;23.360;2023-05-16T10:02:57;11.32;;;10.23;;
3095;SDS011;1558;42.700;23.360;2023-05-16T10:05:31;11.55;;;10.25;;
3095;SDS011;1558;42.700;23.360;2023-05-16T10:08:03;14.70;;;10.48;;
3095;SDS011;1558;42.700;23.360;2023-05-16T10:10:33;10.82;;;9.75;;
3095;SDS011;1558;42.700;23.360;2023-05-16T10:13:05;14.70;;;9.63;;
3095;SDS011;1558;42.700;23.360;2023-05-16T10:15:35;14.57;;;10.07;;
3095;SDS011;1558;42.700;23.360;2023-05-16T10:18:04;11.70;;;10.27;;
3095;SDS011;1558;42.700;23.360;2023-05-16T10:20:37;11.32;;;9.98;;
3095;SDS011;1558;42.700;23.360;2023-05-16T10:23:09;11.18;;;9.70;;
3095;SDS011;1558;42.700;23.360;2023-05-16T10:25:44;11.27;;;9.57;;
3095;SDS011;1558;42.700;23.360;2023-05-16T10:28:13;11.98;;;10.60;;
3095;SDS011;1558;42.700;23.360;2023-05-16T10:30:42;11.00;;;9.90;;
3095;SDS011;1558;42.700;23.360;2023-05-16T10:33:12;12.10;;;10.07;;
3095;SDS011;1558;42.700;23.360;2023-05-16T10:35:41;13.30;;;9.98;;
3095;SDS011;1558;42.700;23.360;2023-05-16T10:38:11;12.13;;;9.95;;
3095;SDS011;1558;42.700;23.360;2023-05-16T10:40:42;11.90;;;10.73;;
3095;SDS011;1558;42.700;23.360;2023-05-16T10:43:13;16.38;;;9.77;;
3095;SDS011;1558;42.700;23.360;2023-05-16T10:45:52;12.73;;;9.70;;
3095;SDS011;1558;42.700;23.360;2023-05-16T10:48:27;14.00;;;10.10;;
3095;SDS011;1558;42.700;23.360;2023-05-16T10:51:32;12.50;;;10.48;;
3095;SDS011;1558;42.700;23.360;2023-05-16T10:54:06;11.75;;;10.43;;
3095;SDS011;1558;42.700;23.360;2023-05-16T10:56:36;11.65;;;10.43;;
3095;SDS011;1558;42.700;23.360;2023-05-16T10:59:09;14.85;;;10.65;;
3095;SDS011;1558;42.700;23.360;2023-05-16T11:01:51;12.00;;;10.00;;
3095;SDS011;1558;42.700;23.360;2023-05-16T11:04:19;10.65;;;9.57;;
3095;SDS011;1558;42.700;23.360;2023-05-16T11:06:51;11.95;;;9.40;;
3095;SDS011;1558;42.700;23.360;2023-05-16T11:09:24;11.02;;;9.45;;
3095;SDS011;1558;42.700;23.360;2023-05-16T11:12:02;10.93;;;9.82;;
3095;SDS011;1558;42.700;23.360;2023-05-16T11:14:38;11.68;;;10.38;;
3095;SDS011;1558;42.700;23.360;2023-05-16T11:17:09;15.82;;;10.35;;
3095;SDS011;1558;42.700;23.360;2023-05-16T11:19:39;13.23;;;9.63;;
3095;SDS011;1558;42.700;23.360;2023-05-16T11:22:10;13.38;;;9.48;;
3095;SDS011;1558;42.700;23.360;2023-05-16T11:24:53;13.52;;;9.88;;
3095;SDS011;1558;42.700;23.360;2023-05-16T11:27:24;12.40;;;9.48;;
3095;SDS011;1558;42.700;23.360;2023-05-16T11:29:56;15.40;;;9.52;;
3095;SDS011;1558;42.700;23.360;2023-05-16T11:32:29;15.75;;;9.65;;
3095;SDS011;1558;42.700;23.360;2023-05-16T11:34:57;13.80;;;9.68;;
3095;SDS011;1558;42.700;23.360;2023-05-16T11:37:26;11.93;;;9.20;;
3095;SDS011;1558;42.700;23.360;2023-05-16T11:39:59;12.05;;;8.60;;
3095;SDS011;1558;42.700;23.360;2023-05-16T11:42:28;9.65;;;8.68;;
3095;SDS011;1558;42.700;23.360;2023-05-16T11:45:05;12.48;;;10.43;;
3095;SDS011;1558;42.700;23.360;2023-05-16T11:47:35;11.27;;;9.55;;
3095;SDS011;1558;42.700;23.360;2023-05-16T11:50:04;13.30;;;9.07;;
3095;SDS011;1558;42.700;23.360;2023-05-16T11:52:33;11.05;;;9.80;;
3095;SDS011;1558;42.700;23.360;2023-05-16T11:55:04;11.70;;;9.68;;
3095;SDS011;1558;42.700;23.360;2023-05-16T11:57:36;14.90;;;10.50;;
3095;SDS011;1558;42.700;23.360;2023-05-16T12:00:09;20.42;;;10.38;;
3095;SDS011;1558;42.700;23.360;2023-05-16T12:02:42;10.68;;;9.35;;
3095;SDS011;1558;42.700;23.360;2023-05-16T12:05:11;14.63;;;9.32;;
3095;SDS011;1558;42.700;23.360;2023-05-16T12:07:40;15.02;;;9.63;;
3095;SDS011;1558;42.700;23.360;2023-05-16T12:10:12;15.30;;;9.50;;
3095;SDS011;1558;42.700;23.360;2023-05-16T12:12:43;11.82;;;9.65;;
3095;SDS011;1558;42.700;23.360;2023-05-16T12:15:13;12.15;;;9.00;;
3095;SDS011;1558;42.700;23.360;2023-05-16T12:17:41;10.57;;;9.52;;
3095;SDS011;1558;42.700;23.360;2023-05-16T12:20:10;11.95;;;9.13;;
3095;SDS011;1558;42.700;23.360;2023-05-16T12:22:40;10.02;;;8.80;;
3095;SDS011;1558;42.700;23.360;2023-05-16T12:25:24;9.73;;;8.90;;
3095;SDS011;1558;42.700;23.360;2023-05-16T12:27:53;12.25;;;8.55;;
3095;SDS011;1558;42.700;23.360;2023-05-16T12:30:23;9.38;;;8.43;;
3095;SDS011;1558;42.700;23.360;2023-05-16T12:32:56;10.27;;;8.48;;
3095;SDS011;1558;42.700;23.360;2023-05-16T12:35:25;12.30;;;9.07;;
3095;SDS011;1558;42.700;23.360;2023-05-16T12:37:57;9.43;;;8.30;;
3095;SDS011;1558;42.700;23.360;2023-05-16T12:40:28;10.98;;;9.48;;
3095;SDS011;1558;42.700;23.360;2023-05-16T12:42:57;11.75;;;9.45;;
3095;SDS011;1558;42.700;23.360;2023-05-16T12:45:26;11.77;;;9.10;;
3095;SDS011;1558;42.700;23.360;2023-05-16T12:47:54;9.70;;;8.80;;
3095;SDS011;1558;42.700;23.360;2023-05-16T12:50:25;10.20;;;9.07;;
3095;SDS011;1558;42.700;23.360;2023-05-16T12:52:57;10.63;;;9.52;;
3095;SDS011;1558;42.700;23.360;2023-05-16T12:55:28;10.68;;;9.40;;
3095;SDS011;1558;42.700;23.360;2023-05-16T12:57:56;14.38;;;10.05;;
3095;SDS011;1558;42.700;23.360;2023-05-16T13:00:24;10.60;;;9.43;;
3095;SDS011;1558;42.700;23.360;2023-05-16T13:02:53;12.50;;;10.05;;
3095;SDS011;1558;42.700;23.360;2023-05-16T13:05:21;14.90;;;10.43;;
3095;SDS011;1558;42.700;23.360;2023-05-16T13:07:49;16.70;;;10.48;;
3095;SDS011;1558;42.700;23.360;2023-05-16T13:10:18;13.07;;;9.93;;
3095;SDS011;1558;42.700;23.360;2023-05-16T13:12:47;13.85;;;10.30;;
3095;SDS011;1558;42.700;23.360;2023-05-16T13:15:16;11.65;;;9.95;;
3095;SDS011;1558;42.700;23.360;2023-05-16T13:17:44;14.65;;;10.50;;
3095;SDS011;1558;42.700;23.360;2023-05-16T13:20:13;15.15;;;9.75;;
3095;SDS011;1558;42.700;23.360;2023-05-16T13:22:43;14.70;;;9.38;;
3095;SDS011;1558;42.700;23.360;2023-05-16T13:25:11;17.48;;;10.07;;
3095;SDS011;1558;42.700;23.360;2023-05-16T13:27:39;12.77;;;9.90;;
3095;SDS011;1558;42.700;23.360;2023-05-16T13:30:09;13.32;;;10.05;;
3095;SDS011;1558;42.700;23.360;2023-05-16T13:32:37;14.45;;;10.27;;
3095;SDS011;1558;42.700;23.360;2023-05-16T13:35:06;12.43;;;10.73;;
3095;SDS011;1558;42.700;23.360;2023-05-16T13:37:35;12.52;;;10.15;;
3095;SDS011;1558;42.700;23.360;2023-05-16T13:40:03;14.48;;;10.80;;
3095;SDS011;1558;42.700;23.360;2023-05-16T13:42:36;14.50;;;9.75;;
3095;SDS011;1558;42.700;23.360;2023-05-16T13:45:05;17.00;;;10.63;;
3095;SDS011;1558;42.700;23.360;2023-05-16T13:47:35;13.40;;;10.35;;
3095;SDS011;1558;42.700;23.360;2023-05-16T13:50:04;18.77;;;10.50;;
3095;SDS011;1558;42.700;23.360;2023-05-16T13:52:35;17.88;;;11.27;;
3095;SDS011;1558;42.700;23.360;2023-05-16T13:55:05;16.67;;;10.38;;
3095;SDS011;1558;42.700;23.360;2023-05-16T13:57:34;12.82;;;9.98;;
3095;SDS011;1558;42.700;23.360;2023-05-16T14:00:02;10.90;;;9.27;;
3095;SDS011;1558;42.700;23.360;2023-05-16T14:02:58;14.40;;;9.73;;
3095;SDS011;1558;42.700;23.360;2023-05-16T14:05:27;13.85;;;10.32;;
3095;SDS011;1558;42.700;23.360;2023-05-16T14:07:55;16.02;;;10.15;;
3095;SDS011;1558;42.700;23.360;2023-05-16T14:10:23;14.80;;;10.00;;
3095;SDS011;1558;42.700;23.360;2023-05-16T14:12:52;14.43;;;10.05;;
3095;SDS011;1558;42.700;23.360;2023-05-16T14:15:20;14.88;;;10.57;;
3095;SDS011;1558;42.700;23.360;2023-05-16T14:17:48;12.48;;;11.23;;
3095;SDS011;1558;42.700;23.360;2023-05-16T14:20:17;15.38;;;11.88;;
3095;SDS011;1558;42.700;23.360;2023-05-16T14:22:45;14.75;;;11.38;;
3095;SDS011;1558;42.700;23.360;2023-05-16T14:25:16;15.02;;;11.52;;
3095;SDS011;1558;42.700;23.360;2023-05-16T14:27:44;19.08;;;12.35;;
3095;SDS011;1558;42.700;23.360;2023-05-16T14:30:12;17.23;;;12.98;;
3095;SDS011;1558;42.700;23.360;2023-05-16T14:32:40;28.17;;;13.07;;
3095;SDS011;1558;42.700;23.360;2023-05-16T14:35:08;15.02;;;11.80;;
3095;SDS011;1558;42.700;23.360;2023-05-16T14:37:38;18.23;;;14.48;;
3095;SDS011;1558;42.700;23.360;2023-05-16T14:40:06;17.92;;;14.13;;
3095;SDS011;1558;42.700;23.360;2023-05-16T14:42:36;18.38;;;12.70;;
3095;SDS011;1558;42.700;23.360;2023-05-16T14:45:04;23.63;;;14.32;;
3095;SDS011;1558;42.700;23.360;2023-05-16T14:47:33;23.17;;;13.23;;
3095;SDS011;1558;42.700;23.360;2023-05-16T14:50:01;20.67;;;13.45;;